Messwerte Chungju

Temperatur

Temperatur
°C
1529211600 14.00 14.00 28
1529215200 15.00 15.00 28
1529218800 16.00 16.00 27
1529222400 17.00 17.00 26
1529226000 18.00 18.00 23
1529229600 19.00 19.00 22
1529233200 20.00 20.00
1529236800 21.00 21.00 20
1529240400 22.00 22.00 20
1529244000 23.00 23.00 20
1529247600 0.00 0.00 20
1529251200 1.00 1.00 20
1529254800 2.00 2.00 19
1529258400 3.00 3.00 19
1529262000 4.00 4.00 19
1529265600 5.00 5.00 19
1529269200 6.00 6.00 19
1529272800 7.00 7.00 20
1529276400 8.00 8.00 22
1529280000 9.00 9.00 23
1529283600 10.00 10.00 25
1529287200 11.00 11.00
1529290800 12.00 12.00 28
1529294400 13.00 13.00 29

Aktuellste Messwerte

Wettercharakter
Wetter: recht sonnig
Temperatur
29 °C
Feuchtigkeit
45 %
Wind
10 km/hWindrichtung: Nordwest
Luftdruck
1006 hPa
Messzeit: 18. Juni 2018, 14.00Datenquelle: METAR

Weitere Messstationen in der Nähe

Messstation Temperatur Entfernung
Chongju 28 °C 49 km
Osan - 83 km
Seoul 25 °C 123 km
Incheon 22 °C 129 km
Taegu Ab 29 °C 136 km
Yangyang 20 °C 137 km
Gusan - 167 km

Wind

Windrichtung Böen Mittelwind
° km/h km/h
1529211600 14.00 13.00 - 14.00 5
1529215200 15.00 14.00 - 15.00 350° 5
1529218800 16.00 15.00 - 16.00 350° 10
1529222400 17.00 16.00 - 17.00 350° 15
1529226000 18.00 17.00 - 18.00 350° 20
1529229600 19.00 18.00 - 19.00 240° 15
1529233200 20.00 19.00 - 20.00
1529236800 21.00 20.00 - 21.00 260° 5
1529240400 22.00 21.00 - 22.00 350° 5
1529244000 23.00 22.00 - 23.00 0
1529247600 0.00 23.00 - 0.00 340° 5
1529251200 1.00 0.00 - 1.00 350° 5
1529254800 2.00 1.00 - 2.00 350° 5
1529258400 3.00 2.00 - 3.00 320° 10
1529262000 4.00 3.00 - 4.00 230° 5
1529265600 5.00 4.00 - 5.00 350° 5
1529269200 6.00 5.00 - 6.00 270° 5
1529272800 7.00 6.00 - 7.00 270° 5
1529276400 8.00 7.00 - 8.00 300° 10
1529280000 9.00 8.00 - 9.00 0
1529283600 10.00 9.00 - 10.00 30° 5
1529287200 11.00 10.00 - 11.00
1529290800 12.00 11.00 - 12.00 40° 10
1529294400 13.00 12.00 - 13.00 280° 5

Ihre Wetterstation

Fehlt Ihre Wetterstation auf unserem Portal?

Schreiben Sie an network@meteonews.ch

Klima

Wann ist es am wärmsten? Wann regnet es am wenigsten? Unsere Klimadaten geben Auskunft.